Time;durP1;ratioP1;P1;durP2;ratioP2;P2;SDS_P1;SDS_P2;PMS_P1;PMS_P2;Temp;Humidity;BMP_temperature;BMP_pressure;BME280_temperature;BME280_humidity;BME280_pressure;Samples;Min_cycle;Max_cycle;Signal;HPM_P1;HPM_P2
2022/01/10 00:07:42;;;;;;;47.60;28.40;;;;;;;-5.05;76.73;98843.55;446669;1272;141704;-63
2022/01/10 00:17:48;;;;;;;43.50;26.40;;;;;;;-5.14;76.90;98848.62;436351;1273;141234;-61
2022/01/10 00:27:56;;;;;;;50.10;31.40;;;;;;;-5.08;76.98;98852.98;428564;1273;141896;-62
2022/01/10 00:38:02;;;;;;;40.00;23.40;;;;;;;-4.97;76.84;98869.07;429586;1273;141997;-63
2022/01/10 00:48:08;;;;;;;41.80;26.30;;;;;;;-4.95;76.91;98886.29;430115;1273;141122;-63
2022/01/10 00:58:14;;;;;;;44.50;24.90;;;;;;;-4.99;76.87;98909.38;428691;1273;141689;-62
2022/01/10 01:08:20;;;;;;;49.50;26.80;;;;;;;-5.24;77.00;98909.15;432716;1273;141069;-62
2022/01/10 01:19:00;;;;;;;43.10;27.60;;;;;;;-5.46;77.21;98917.38;428983;1271;141270;-62
2022/01/10 01:28:58;;;;;;;50.10;27.70;;;;;;;-5.59;77.53;98920.58;440658;1270;140904;-61
2022/01/10 01:39:16;;;;;;;43.30;26.60;;;;;;;-5.52;77.66;98930.92;429978;1271;141846;-61
2022/01/10 01:49:22;;;;;;;42.00;25.70;;;;;;;-5.46;77.51;98943.49;447421;1270;141534;-62
2022/01/10 01:59:28;;;;;;;50.10;25.40;;;;;;;-5.47;77.53;98954.59;447421;1270;140920;-62
2022/01/10 02:09:34;;;;;;;44.40;25.50;;;;;;;-5.48;77.74;98960.56;446702;1270;141300;-62
2022/01/10 02:19:38;;;;;;;;;;;;;;;-5.60;77.57;98972.60;447493;1269;141203;-63
2022/01/10 02:29:44;;;;;;;38.80;23.00;;;;;;;-5.78;77.78;98987.05;447724;1270;128174;-63
2022/01/10 02:39:49;;;;;;;42.10;25.30;;;;;;;-5.86;78.07;98999.05;446588;1270;143544;-63
2022/01/10 02:49:56;;;;;;;44.00;25.60;;;;;;;-5.89;78.26;99014.58;435535;1270;141325;-62
2022/01/10 03:00:04;;;;;;;45.00;26.10;;;;;;;-5.84;78.40;99018.63;445046;1271;142824;-63
2022/01/10 03:10:11;;;;;;;39.40;26.70;;;;;;;-5.59;78.65;99038.25;446679;1270;142076;-62
2022/01/10 03:20:17;;;;;;;45.30;26.20;;;;;;;-5.44;78.22;99044.27;447417;1271;141604;-63
2022/01/10 03:30:23;;;;;;;50.70;30.10;;;;;;;-5.44;78.34;99065.44;446675;1270;142927;-62
2022/01/10 03:40:27;;;;;;;;;;;;;;;-5.58;78.33;99084.45;441478;1271;141977;-63
2022/01/10 03:50:33;;;;;;;41.00;25.60;;;;;;;-5.79;78.55;99095.32;442368;1271;127052;-62
2022/01/10 04:00:39;;;;;;;50.60;27.90;;;;;;;-6.03;78.75;99109.95;444232;1271;141147;-61
2022/01/10 04:10:45;;;;;;;48.00;31.70;;;;;;;-6.18;79.04;99127.58;430504;1271;141742;-62
2022/01/10 04:20:49;;;;;;;;;;;;;;;-6.20;79.48;99146.49;429955;1271;141492;-63
2022/01/10 04:30:55;;;;;;;46.50;28.50;;;;;;;-6.09;79.69;99163.67;446373;1270;128008;-63
2022/01/10 04:41:00;;;;;;;;;;;;;;;-5.89;79.84;99184.03;447468;1270;142294;-63
2022/01/10 04:51:13;;;;;;;49.40;28.50;;;;;;;-5.80;79.91;99204.80;442450;1270;128410;-62
2022/01/10 05:01:19;;;;;;;45.00;27.90;;;;;;;-5.74;80.14;99218.23;447443;1271;142986;-62
2022/01/10 05:11:25;;;;;;;52.20;28.50;;;;;;;-5.88;80.20;99235.17;447413;1271;141992;-62
2022/01/10 05:21:31;;;;;;;41.10;26.70;;;;;;;-6.00;80.57;99252.95;446220;1272;141608;-61
2022/01/10 05:31:37;;;;;;;43.60;26.50;;;;;;;-6.01;80.70;99271.69;434769;1270;143577;-62
2022/01/10 05:41:43;;;;;;;45.90;26.00;;;;;;;-5.92;80.68;99298.94;430126;1271;141882;-62
2022/01/10 05:51:49;;;;;;;48.00;29.50;;;;;;;-5.88;80.72;99309.50;435497;1271;142712;-63
2022/01/10 06:01:55;;;;;;;48.50;28.50;;;;;;;-5.94;80.67;99328.42;443288;1271;142466;-61
2022/01/10 06:12:01;;;;;;;56.20;30.40;;;;;;;-6.15;80.77;99344.48;430899;1271;141908;-62
2022/01/10 06:22:06;;;;;;;;;;;;;;;-6.34;81.15;99359.83;434128;1270;143400;-61
2022/01/10 06:32:11;;;;;;;58.50;32.20;;;;;;;-6.28;81.70;99384.87;432979;1270;127954;-61
2022/01/10 06:42:18;;;;;;;52.40;29.60;;;;;;;-6.11;81.84;99419.31;429750;1271;145213;-61
2022/01/10 06:52:24;;;;;;;50.30;29.00;;;;;;;-5.92;81.90;99448.27;431709;1271;142155;-63
2022/01/10 07:02:28;;;;;;;;;;;;;;;-5.77;81.90;99474.55;447475;1271;141784;-63
2022/01/10 07:12:34;;;;;;;53.10;31.00;;;;;;;-5.73;81.91;99490.92;444890;1271;128877;-62
2022/01/10 07:22:39;;;;;;;45.50;26.10;;;;;;;-5.55;82.13;99514.64;447464;1271;142347;-62
2022/01/10 07:32:45;;;;;;;48.20;26.90;;;;;;;-5.31;82.09;99531.87;447432;1271;141988;-62
2022/01/10 07:42:51;;;;;;;44.30;24.10;;;;;;;-5.13;82.11;99560.20;446419;1271;141453;-62
2022/01/10 07:52:57;;;;;;;41.00;23.10;;;;;;;-4.93;82.09;99577.77;447063;1271;141566;-64
2022/01/10 08:03:03;;;;;;;44.60;23.90;;;;;;;-4.82;82.08;99604.58;439304;1271;141593;-64
2022/01/10 08:13:07;;;;;;;;;;;;;;;-4.76;82.06;99618.92;446329;1271;142730;-63
2022/01/10 08:23:13;;;;;;;35.00;20.90;;;;;;;-4.52;82.10;99634.25;432224;1272;127921;-62
2022/01/10 08:33:19;;;;;;;31.40;18.10;;;;;;;-4.30;82.02;99642.07;439962;1272;142069;-64
2022/01/10 08:43:25;;;;;;;33.90;19.80;;;;;;;-4.17;81.66;99661.38;442393;1271;141742;-71
2022/01/10 08:53:31;;;;;;;27.40;16.40;;;;;;;-4.21;81.58;99672.66;447550;1271;142147;-63
2022/01/10 09:03:37;;;;;;;29.90;19.80;;;;;;;-4.15;81.51;99704.79;446614;1270;142365;-63
2022/01/10 09:13:44;;;;;;;34.10;20.70;;;;;;;-3.99;81.61;99718.93;431194;1271;141159;-63
2022/01/10 09:23:50;;;;;;;30.50;19.30;;;;;;;-3.78;81.64;99735.83;440432;1271;142218;-63
2022/01/10 09:33:56;;;;;;;32.20;21.10;;;;;;;-3.75;81.61;99746.77;446742;1270;142083;-66
2022/01/10 09:44:04;;;;;;;29.70;20.50;;;;;;;-3.72;81.70;99756.51;445208;1271;141912;-64
2022/01/10 09:54:10;;;;;;;26.00;16.60;;;;;;;-3.59;81.66;99771.17;440464;1270;142203;-61
2022/01/10 10:04:16;;;;;;;31.30;19.50;;;;;;;-3.50;81.50;99782.63;436175;1271;141772;-64
2022/01/10 10:14:23;;;;;;;27.00;16.90;;;;;;;-3.54;81.48;99809.66;435656;1271;141111;-60
2022/01/10 10:24:29;;;;;;;25.30;17.00;;;;;;;-3.58;81.46;99832.95;445343;1271;141507;-71
2022/01/10 10:34:35;;;;;;;27.20;17.10;;;;;;;-3.48;81.65;99851.59;438400;1271;142101;-70
2022/01/10 10:44:42;;;;;;;23.10;16.00;;;;;;;-3.29;81.62;99860.27;447433;1271;141490;-62
2022/01/10 10:54:48;;;;;;;26.20;17.10;;;;;;;-3.17;81.60;99872.91;446624;1271;188458;-66
2022/01/10 11:04:54;;;;;;;25.40;16.70;;;;;;;-3.06;81.60;99885.55;442324;1271;141981;-65
2022/01/10 11:15:00;;;;;;;31.60;20.40;;;;;;;-3.16;81.56;99896.55;439891;1271;140880;-66
2022/01/10 11:25:06;;;;;;;;;;;;;;;-3.21;81.81;99900.65;442392;1271;143132;-63
2022/01/10 11:35:12;;;;;;;32.30;20.30;;;;;;;-3.16;82.04;99913.84;441014;1271;128244;-60
2022/01/10 11:45:16;;;;;;;;;;;;;;;-2.97;81.96;99929.20;442844;1271;141420;-65
2022/01/10 11:55:32;;;;;;;27.70;18.20;;;;;;;-2.68;81.92;99936.63;447601;1271;128413;-66
2022/01/10 12:05:39;;;;;;;23.80;16.00;;;;;;;-2.53;81.36;99952.00;447446;1271;141447;-59
2022/01/10 12:15:45;;;;;;;23.50;14.90;;;;;;;-2.41;81.15;99964.63;446678;1271;141056;-63
2022/01/10 12:25:51;;;;;;;21.00;15.50;;;;;;;-2.42;80.83;99977.67;447462;1270;141797;-63
2022/01/10 12:35:57;;;;;;;25.00;16.30;;;;;;;-2.42;80.60;99990.20;447123;1271;140907;-61
2022/01/10 12:46:03;;;;;;;15.30;11.00;;;;;;;-2.37;80.44;100011.59;438939;1271;142808;-61
2022/01/10 12:56:09;;;;;;;28.50;15.20;;;;;;;-2.24;80.00;100030.92;447563;1270;142703;-61
2022/01/10 13:06:15;;;;;;;21.40;13.60;;;;;;;-2.02;79.86;100047.11;446425;1270;143198;-64
2022/01/10 13:16:27;;;;;;;26.00;14.70;;;;;;;-2.09;79.71;100069.13;447022;1271;196996;-55
2022/01/10 13:26:33;;;;;;;16.50;12.30;;;;;;;-2.16;79.65;100085.10;447391;1271;141876;-61
2022/01/10 13:36:45;;;;;;;23.50;14.00;;;;;;;-2.25;79.61;100108.11;446778;1270;141835;-60
2022/01/10 13:47:01;;;;;;;22.30;15.40;;;;;;;-2.26;79.46;100121.66;447417;1270;142543;-63
2022/01/10 13:57:21;;;;;;;24.90;15.50;;;;;;;-2.11;79.61;100143.06;434310;1271;141630;-61
2022/01/10 14:07:34;;;;;;;29.90;18.30;;;;;;;-1.96;79.40;100151.59;447531;1271;142264;-66
2022/01/10 14:17:40;;;;;;;29.10;18.90;;;;;;;-1.97;79.31;100163.09;441382;1271;141305;-65
2022/01/10 14:27:47;;;;;;;31.60;20.30;;;;;;;-2.16;79.39;100177.55;443109;1271;142129;-65
2022/01/10 14:37:51;;;;;;;;;;;;;;;-2.21;79.47;100195.91;445159;1270;141527;-65
2022/01/10 14:47:57;;;;;;;34.80;21.80;;;;;;;-2.12;79.32;100213.74;444337;1271;127640;-65
2022/01/10 14:58:03;;;;;;;35.10;20.20;;;;;;;-2.06;79.25;100234.49;446796;1270;142569;-68
2022/01/10 15:08:10;;;;;;;34.60;22.50;;;;;;;-2.22;78.94;100258.52;447438;1270;198932;-64
2022/01/10 15:18:21;;;;;;;30.80;18.50;;;;;;;-2.38;79.29;100283.74;443073;1270;142005;-55
2022/01/10 15:28:27;;;;;;;28.70;19.00;;;;;;;-2.37;79.02;100300.54;442453;1270;211055;-60
2022/01/10 15:38:33;;;;;;;36.00;19.30;;;;;;;-2.26;78.98;100320.80;434765;1271;146328;-61
2022/01/10 15:48:39;;;;;;;32.00;20.30;;;;;;;-2.34;78.95;100339.66;429262;1271;142409;-60
2022/01/10 15:58:45;;;;;;;29.00;18.70;;;;;;;-2.90;78.72;100369.17;431166;1270;141472;-59
2022/01/10 16:08:50;;;;;;;30.00;18.60;;;;;;;-3.47;79.14;100388.92;434394;1270;142024;-61
2022/01/10 16:18:56;;;;;;;31.70;19.20;;;;;;;-3.78;79.55;100413.88;446704;1270;142673;-60
2022/01/10 16:29:02;;;;;;;27.30;17.80;;;;;;;-3.93;79.87;100432.22;443676;1270;145837;-59
2022/01/10 16:39:28;;;;;;;31.70;17.80;;;;;;;-4.03;80.21;100448.38;444746;1271;144315;-60
2022/01/10 16:49:33;;;;;;;;;;;;;;;-4.20;80.54;100460.86;447537;1270;143663;-63
2022/01/10 16:59:39;;;;;;;27.70;16.30;;;;;;;-4.19;80.72;100467.73;447714;1271;128948;-64
2022/01/10 17:09:48;;;;;;;27.90;18.00;;;;;;;-4.27;80.62;100481.83;444244;1269;194881;-64
2022/01/10 17:20:14;;;;;;;30.50;18.80;;;;;;;-4.43;80.68;100495.31;444022;1269;144198;-64
2022/01/10 17:30:20;;;;;;;32.30;21.20;;;;;;;-4.60;80.79;100502.80;446749;1270;142366;-64
2022/01/10 17:40:26;;;;;;;29.00;19.60;;;;;;;-4.85;80.86;100519.88;447417;1270;140919;-63
2022/01/10 17:50:33;;;;;;;30.50;19.90;;;;;;;-5.06;81.14;100531.71;447312;1270;142784;-64
2022/01/10 18:00:39;;;;;;;31.80;20.40;;;;;;;-5.10;81.27;100548.55;441946;1271;142177;-67
2022/01/10 18:10:45;;;;;;;35.20;19.00;;;;;;;-5.09;81.40;100558.81;446096;1270;141988;-64
2022/01/10 18:20:51;;;;;;;31.20;19.30;;;;;;;-5.10;81.49;100566.33;437754;1272;142407;-62
2022/01/10 18:30:55;;;;;;;;;;;;;;;-5.15;81.47;100585.53;440948;1270;141690;-63
2022/01/10 18:40:59;;;;;;;;;;;;;;;-5.33;81.55;100597.53;447743;1270;127850;-64
2022/01/10 18:51:04;;;;;;;;;;;;;;;-5.52;81.74;100607.44;447017;1270;127414;-63
2022/01/10 19:01:08;;;;;;;;;;;;;;;-5.67;81.94;100619.96;433093;1271;128828;-64
2022/01/10 19:11:13;;;;;;;;;;;;;;;-5.65;82.36;100630.90;444128;1271;130792;-65
2022/01/10 19:21:17;;;;;;;;;;;;;;;-5.53;82.36;100643.41;447002;1270;128900;-66
2022/01/10 19:31:21;;;;;;;;;;;;;;;-5.42;82.43;100657.80;447696;1270;128346;-65
2022/01/10 19:41:26;;;;;;;;;;;;;;;-5.35;82.36;100666.13;447130;1273;128333;-61
2022/01/10 19:51:31;;;;;;;;;;;;;;;-5.33;82.19;100685.60;441664;1271;128679;-61
2022/01/10 20:01:35;;;;;;;;;;;;;;;-5.41;82.18;100704.21;432676;1270;127595;-67
2022/01/10 20:11:43;;;;;;;;;;;;;;;-5.60;82.14;100708.11;447742;1270;127934;-62
2022/01/10 20:21:47;;;;;;;;;;;;;;;-5.71;82.38;100721.05;447033;1271;127826;-60
2022/01/10 20:31:52;;;;;;;;;;;;;;;-5.70;82.38;100731.30;443187;1271;129001;-60
2022/01/10 20:41:56;;;;;;;;;;;;;;;-5.68;82.48;100743.11;447714;1270;127777;-60
2022/01/10 20:52:00;;;;;;;;;;;;;;;-5.67;82.33;100764.27;447078;1270;129064;-60
2022/01/10 21:02:05;;;;;;;;;;;;;;;-5.69;82.36;100774.63;437731;1271;129149;-59
2022/01/10 21:12:10;;;;;;;;;;;;;;;-5.80;82.54;100790.95;447713;1270;129084;-60
2022/01/10 21:22:15;;;;;;;;;;;;;;;-5.94;82.63;100800.02;445708;1270;127555;-59
2022/01/10 21:32:19;;;;;;;;;;;;;;;-5.99;82.70;100813.21;434189;1270;127940;-63
2022/01/10 21:42:23;;;;;;;;;;;;;;;-5.96;82.97;100829.64;445488;1270;129519;-59
2022/01/10 21:52:27;;;;;;;;;;;;;;;-5.95;82.85;100835.48;438016;1270;129435;-61
2022/01/10 22:02:32;;;;;;;;;;;;;;;-5.94;82.85;100845.88;447579;1271;127794;-62
2022/01/10 22:12:36;;;;;;;;;;;;;;;-5.88;82.84;100868.39;446073;1271;146999;-61
2022/01/10 22:22:41;;;;;;;;;;;;;;;-5.89;82.80;100878.76;435339;1271;127548;-59
2022/01/10 22:32:46;;;;;;;;;;;;;;;-6.06;82.85;100886.91;429958;1271;128481;-58
2022/01/10 22:42:52;;;;;;;;;;;;;;;-6.29;83.03;100892.64;447061;1271;128080;-58
2022/01/10 22:52:56;;;;;;;;;;;;;;;-6.46;83.15;100902.27;434812;1271;269798;-58
2022/01/10 23:03:00;;;;;;;;;;;;;;;-6.61;83.20;100911.57;443383;1270;130064;-58
2022/01/10 23:13:05;;;;;;;;;;;;;;;-6.68;83.50;100915.28;447014;1271;128477;-59
2022/01/10 23:23:09;;;;;;;;;;;;;;;-6.61;83.90;100916.66;447504;1270;128334;-59
2022/01/10 23:33:14;;;;;;;;;;;;;;;-6.46;83.87;100917.08;447219;1270;128982;-57
2022/01/10 23:43:18;;;;;;;;;;;;;;;-6.37;83.76;100921.08;447617;1270;194136;-59
2022/01/10 23:53:22;;;;;;;;;;;;;;;-6.31;83.70;100926.49;447691;1271;128718;-59
